Time;durP1;ratioP1;P1;durP2;ratioP2;P2;SDS_P1;SDS_P2;PMS_P1;PMS_P2;Temp;Humidity;BMP_temperature;BMP_pressure;BME280_temperature;BME280_humidity;BME280_pressure;Samples;Min_cycle;Max_cycle;Signal;HPM_P1;HPM_P2
2022/03/02 00:02:41;0.00;0.00;0.62;0.00;0.00;0.62;5.17;4.67;;;22.90;20.80;;;;;;2261007;61;20486;-66
2022/03/02 00:05:27;0.00;0.00;0.62;0.00;0.00;0.62;5.73;4.43;;;22.90;20.80;;;;;;2261420;61;20431;-67
2022/03/02 00:08:12;0.00;0.00;0.62;0.00;0.00;0.62;6.60;5.20;;;22.90;20.80;;;;;;2261393;61;20357;-67
2022/03/02 00:10:56;0.00;0.00;0.62;0.00;0.00;0.62;6.80;6.10;;;22.80;20.70;;;;;;2261042;61;20405;-68
2022/03/02 00:13:42;0.00;0.00;0.62;0.00;0.00;0.62;6.50;5.90;;;22.80;20.70;;;;;;2261869;61;20366;-67
2022/03/02 00:16:28;0.00;0.00;0.62;0.00;0.00;0.62;6.57;5.97;;;22.80;20.70;;;;;;2260799;61;20381;-65
2022/03/02 00:19:12;0.00;0.00;0.62;0.00;0.00;0.62;6.40;5.73;;;22.80;20.70;;;;;;2261449;61;20437;-66
2022/03/02 00:21:57;0.00;0.00;0.62;0.00;0.00;0.62;6.33;5.60;;;22.70;20.70;;;;;;2261734;61;20772;-68
2022/03/02 00:24:43;0.00;0.00;0.62;0.00;0.00;0.62;7.20;6.23;;;22.70;20.70;;;;;;2260268;61;20566;-67
2022/03/02 00:27:27;0.00;0.00;0.62;0.00;0.00;0.62;7.17;6.33;;;22.70;20.70;;;;;;2261727;61;20979;-65
2022/03/02 00:30:13;0.00;0.00;0.62;0.00;0.00;0.62;7.10;6.30;;;22.70;20.70;;;;;;2261279;61;20470;-67
2022/03/02 00:33:01;0.00;0.00;0.62;0.00;0.00;0.62;6.23;5.73;;;22.70;20.70;;;;;;2260393;61;20433;-68
2022/03/02 00:35:46;0.00;0.00;0.62;0.00;0.00;0.62;6.40;5.80;;;22.60;20.60;;;;;;2261662;61;20405;-68
2022/03/02 00:38:31;0.00;0.00;0.62;0.00;0.00;0.62;7.93;6.47;;;22.60;20.60;;;;;;2260726;61;20397;-65
2022/03/02 00:41:16;0.00;0.00;0.62;0.00;0.00;0.62;7.07;6.27;;;22.60;20.60;;;;;;2261228;61;20358;-66
2022/03/02 00:44:02;0.00;0.00;0.62;0.00;0.00;0.62;6.93;6.23;;;22.50;20.50;;;;;;2261728;61;20448;-66
2022/03/02 00:46:48;0.00;0.00;0.62;0.00;0.00;0.62;9.03;6.30;;;22.50;20.50;;;;;;2261205;61;20401;-67
2022/03/02 00:49:34;0.00;0.00;0.62;0.00;0.00;0.62;7.70;5.80;;;22.50;20.50;;;;;;2262061;61;20496;-65
2022/03/02 00:52:20;0.00;0.00;0.62;0.00;0.00;0.62;6.83;6.13;;;22.50;21.00;;;;;;2261712;61;20745;-66
2022/03/02 00:55:05;0.00;0.00;0.62;0.00;0.00;0.62;7.63;6.90;;;22.50;20.50;;;;;;2261621;61;20413;-65
2022/03/02 00:57:50;0.00;0.00;0.62;0.00;0.00;0.62;6.00;5.40;;;22.40;20.30;;;;;;2262499;61;20358;-66
2022/03/02 01:00:35;0.00;0.00;0.62;0.00;0.00;0.62;6.70;6.00;;;22.40;20.20;;;;;;2261355;61;20361;-67
2022/03/02 01:03:21;0.00;0.00;0.62;0.00;0.00;0.62;7.50;6.70;;;22.40;20.20;;;;;;2261608;61;20425;-66
2022/03/02 01:06:06;0.00;0.00;0.62;0.00;0.00;0.62;7.27;6.40;;;22.40;20.10;;;;;;2262662;61;20434;-68
2022/03/02 01:08:51;0.00;0.00;0.62;0.00;0.00;0.62;7.10;6.20;;;22.30;20.00;;;;;;2261311;61;20370;-67
2022/03/02 01:11:35;0.00;0.00;0.62;0.00;0.00;0.62;7.03;5.80;;;22.30;20.10;;;;;;2262330;61;20427;-67
2022/03/02 01:14:20;0.00;0.00;0.62;0.00;0.00;0.62;6.23;5.63;;;22.30;20.10;;;;;;2261811;61;20610;-65
2022/03/02 01:17:05;0.00;0.00;0.62;0.00;0.00;0.62;6.10;5.23;;;22.30;20.10;;;;;;2261160;61;20464;-65
2022/03/02 01:19:51;0.00;0.00;0.62;0.00;0.00;0.62;8.43;6.43;;;22.30;20.10;;;;;;2262415;61;20362;-65
2022/03/02 01:22:37;0.00;0.00;0.62;0.00;0.00;0.62;6.40;5.80;;;22.30;20.20;;;;;;2261198;61;20436;-65
2022/03/02 01:25:21;0.00;0.00;0.62;0.00;0.00;0.62;6.40;5.80;;;22.20;20.10;;;;;;2262030;61;20385;-65
2022/03/02 01:28:06;0.00;0.00;0.62;0.00;0.00;0.62;6.97;6.27;;;22.20;20.10;;;;;;2262353;61;20745;-66
2022/03/02 01:30:50;0.00;0.00;0.62;0.00;0.00;0.62;8.40;6.37;;;22.20;20.10;;;;;;2261394;61;20409;-69
2022/03/02 01:33:35;0.00;0.00;0.62;0.00;0.00;0.62;6.47;5.87;;;22.20;20.20;;;;;;2262315;61;20460;-68
2022/03/02 01:36:22;0.00;0.00;0.62;0.00;0.00;0.62;6.33;5.73;;;22.20;20.20;;;;;;2262391;61;20646;-67
2022/03/02 01:39:06;0.00;0.00;0.62;0.00;0.00;0.62;7.17;6.27;;;22.10;20.20;;;;;;2262106;61;20454;-68
2022/03/02 01:41:52;0.00;0.00;0.62;0.00;0.00;0.62;6.63;5.90;;;22.10;20.20;;;;;;2262566;61;20413;-67
2022/03/02 01:44:37;0.00;0.00;0.62;0.00;0.00;0.62;6.80;5.90;;;22.10;20.20;;;;;;2261828;61;20409;-65
2022/03/02 01:47:26;0.00;0.00;0.62;0.00;0.00;0.62;6.70;5.67;;;22.10;20.20;;;;;;2261986;61;20362;-66
2022/03/02 01:50:13;0.00;0.00;0.62;0.00;0.00;0.62;6.67;5.97;;;22.10;20.20;;;;;;2262183;61;20434;-66
2022/03/02 01:53:00;0.00;0.00;0.62;0.00;0.00;0.62;6.77;5.60;;;22.10;20.20;;;;;;2261281;61;20424;-67
2022/03/02 01:55:44;0.00;0.00;0.62;0.00;0.00;0.62;5.90;5.30;;;22.10;20.20;;;;;;2262017;61;20474;-66
2022/03/02 01:58:30;0.00;0.00;0.62;0.00;0.00;0.62;7.07;6.37;;;22.10;20.20;;;;;;2262114;61;20595;-69
2022/03/02 02:01:17;0.00;0.00;0.62;0.00;0.00;0.62;7.10;6.20;;;22.00;20.20;;;;;;2261433;61;20365;-66
2022/03/02 02:04:02;0.00;0.00;0.62;0.00;0.00;0.62;8.37;5.97;;;22.00;20.20;;;;;;2262195;61;20361;-67
2022/03/02 02:06:47;0.00;0.00;0.62;0.00;0.00;0.62;7.43;6.33;;;22.00;20.20;;;;;;2261672;61;20358;-67
2022/03/02 02:09:33;0.00;0.00;0.62;0.00;0.00;0.62;7.10;5.90;;;22.00;20.20;;;;;;2261912;61;20404;-66
2022/03/02 02:12:17;0.00;0.00;0.62;0.00;0.00;0.62;7.77;6.23;;;22.00;20.10;;;;;;2261915;61;20386;-66
2022/03/02 02:15:03;0.00;0.00;0.62;0.00;0.00;0.62;6.30;5.70;;;21.90;20.10;;;;;;2260931;61;20725;-67
2022/03/02 02:17:48;0.00;0.00;0.62;0.00;0.00;0.62;6.80;6.10;;;21.90;20.10;;;;;;2261773;61;20421;-67
2022/03/02 02:20:36;0.00;0.00;0.62;0.00;0.00;0.62;6.20;5.60;;;21.90;20.10;;;;;;2262136;61;20565;-65
2022/03/02 02:23:21;0.00;0.00;0.62;0.00;0.00;0.62;6.07;5.43;;;21.90;20.10;;;;;;2261480;61;20398;-64
2022/03/02 02:26:07;0.00;0.00;0.62;0.00;0.00;0.62;6.90;6.20;;;21.90;20.10;;;;;;2262243;61;20400;-66
2022/03/02 02:28:53;0.00;0.00;0.62;0.00;0.00;0.62;6.80;6.10;;;21.80;20.00;;;;;;2261771;61;20405;-67
2022/03/02 02:31:37;0.00;0.00;0.62;0.00;0.00;0.62;7.47;6.03;;;21.80;20.00;;;;;;2261520;61;20392;-67
2022/03/02 02:34:22;0.00;0.00;0.62;0.00;0.00;0.62;7.13;6.00;;;21.80;20.00;;;;;;2262006;61;20413;-67
2022/03/02 02:37:08;0.00;0.00;0.62;0.00;0.00;0.62;6.80;5.37;;;21.80;20.00;;;;;;2261265;61;20382;-67
2022/03/02 02:39:55;0.00;0.00;0.62;0.00;0.00;0.62;7.07;6.40;;;21.70;20.00;;;;;;2261697;61;20386;-66
2022/03/02 02:42:44;0.00;0.00;0.62;0.00;0.00;0.62;7.93;6.10;;;21.70;20.00;;;;;;2261870;61;20397;-66
2022/03/02 02:45:29;0.00;0.00;0.62;0.00;0.00;0.62;6.00;5.40;;;21.70;20.00;;;;;;2261433;61;20394;-65
2022/03/02 02:48:13;0.00;0.00;0.62;0.00;0.00;0.62;6.57;5.97;;;21.70;20.00;;;;;;2262141;61;20396;-65
2022/03/02 02:50:58;0.00;0.00;0.62;0.00;0.00;0.62;7.83;6.17;;;21.70;20.00;;;;;;2261448;61;20366;-68
2022/03/02 02:53:44;0.00;0.00;0.62;0.00;0.00;0.62;6.10;5.50;;;21.60;19.90;;;;;;2261399;61;20409;-67
2022/03/02 02:56:28;0.00;0.00;0.62;0.00;0.00;0.62;6.87;6.17;;;21.60;19.90;;;;;;2261893;61;20428;-67
2022/03/02 02:59:13;0.00;0.00;0.62;0.00;0.00;0.62;7.23;6.53;;;21.60;19.90;;;;;;2261184;61;20394;-66
2022/03/02 03:01:57;0.00;0.00;0.62;0.00;0.00;0.62;7.70;6.27;;;21.60;19.90;;;;;;2261446;61;20381;-66
2022/03/02 03:04:42;0.00;0.00;0.62;0.00;0.00;0.62;6.80;5.47;;;21.60;19.90;;;;;;2262074;61;20629;-64
2022/03/02 03:07:26;0.00;0.00;0.62;0.00;0.00;0.62;6.57;5.40;;;21.60;19.90;;;;;;2260843;61;20362;-68
2022/03/02 03:10:15;0.00;0.00;0.62;0.00;0.00;0.62;6.40;5.53;;;21.50;19.80;;;;;;2261955;61;20358;-67
2022/03/02 03:13:01;0.00;0.00;0.62;0.00;0.00;0.62;6.00;5.43;;;21.50;19.80;;;;;;2261449;61;20407;-68
2022/03/02 03:15:46;0.00;0.00;0.62;0.00;0.00;0.62;5.80;5.20;;;21.50;19.80;;;;;;2261029;61;20357;-68
2022/03/02 03:18:30;0.00;0.00;0.62;0.00;0.00;0.62;6.90;6.30;;;21.50;19.80;;;;;;2262138;61;20405;-68
2022/03/02 03:21:15;0.00;0.00;0.62;0.00;0.00;0.62;10.50;6.67;;;21.50;19.80;;;;;;2261062;61;20366;-68
2022/03/02 03:24:00;0.00;0.00;0.62;0.00;0.00;0.62;5.33;4.87;;;21.50;19.80;;;;;;2261548;61;20586;-68
2022/03/02 03:26:45;0.00;0.00;0.62;0.00;0.00;0.62;7.23;6.33;;;21.40;19.80;;;;;;2262044;61;20353;-66
2022/03/02 03:29:30;0.00;0.00;0.62;0.00;0.00;0.62;6.80;6.17;;;21.40;19.80;;;;;;2260998;61;20366;-66
2022/03/02 03:32:15;0.00;0.00;0.62;0.00;0.00;0.62;9.30;6.40;;;21.40;19.80;;;;;;2261708;61;20378;-66
2022/03/02 03:35:00;0.00;0.00;0.62;0.00;0.00;0.62;8.03;6.67;;;21.40;19.80;;;;;;2261066;61;20624;-66
2022/03/02 03:37:45;0.00;0.00;0.62;0.00;0.00;0.62;6.23;5.60;;;21.40;19.80;;;;;;2261142;61;20389;-66
2022/03/02 03:40:30;0.00;0.00;0.62;0.00;0.00;0.62;6.37;5.70;;;21.40;19.80;;;;;;2261877;61;20366;-67
2022/03/02 03:43:16;0.00;0.00;0.62;0.00;0.00;0.62;6.70;6.00;;;21.40;19.80;;;;;;2260453;61;20520;-65
2022/03/02 03:46:00;0.00;0.00;0.62;0.00;0.00;0.62;7.03;5.83;;;21.30;19.70;;;;;;2261482;61;20366;-67
2022/03/02 03:48:45;0.00;0.00;0.62;0.00;0.00;0.62;7.23;6.17;;;21.30;19.70;;;;;;2261951;61;20391;-67
2022/03/02 03:51:29;0.00;0.00;0.62;0.00;0.00;0.62;8.30;6.17;;;21.30;19.70;;;;;;2260648;61;20390;-67
2022/03/02 03:54:14;0.00;0.00;0.62;0.00;0.00;0.62;6.67;6.07;;;21.30;19.70;;;;;;2261508;61;20341;-68
2022/03/02 03:56:58;0.00;0.00;0.62;0.00;0.00;0.62;7.43;6.13;;;21.30;19.70;;;;;;2261604;61;20377;-68
2022/03/02 03:59:44;0.00;0.00;0.62;0.00;0.00;0.62;6.57;5.60;;;21.30;19.70;;;;;;2261046;61;20737;-65
2022/03/02 04:02:29;0.00;0.00;0.62;0.00;0.00;0.62;7.30;6.03;;;21.20;19.60;;;;;;2261777;61;20382;-67
2022/03/02 04:05:14;0.00;0.00;0.62;0.00;0.00;0.62;8.67;6.30;;;21.20;19.60;;;;;;2261341;61;20362;-69
2022/03/02 04:07:58;0.00;0.00;0.62;0.00;0.00;0.62;6.90;6.20;;;21.20;19.60;;;;;;2261390;61;20729;-66
2022/03/02 04:10:45;0.00;0.00;0.62;0.00;0.00;0.62;6.53;5.20;;;21.20;19.70;;;;;;2261803;61;20732;-66
2022/03/02 04:13:29;0.00;0.00;0.62;0.00;0.00;0.62;6.63;6.03;;;21.20;19.70;;;;;;2260895;61;20382;-66
2022/03/02 04:16:15;0.00;0.00;0.62;0.00;0.00;0.62;7.10;6.10;;;21.20;19.80;;;;;;2260922;61;20405;-67
2022/03/02 04:19:00;0.00;0.00;0.62;0.00;0.00;0.62;6.20;5.50;;;21.20;19.80;;;;;;2261717;61;20366;-68
2022/03/02 04:21:45;0.00;0.00;0.62;0.00;0.00;0.62;7.67;5.43;;;21.20;19.80;;;;;;2260955;61;20425;-66
2022/03/02 04:24:29;0.00;0.00;0.62;0.00;0.00;0.62;6.90;5.80;;;21.10;19.70;;;;;;2261828;61;20385;-68
2022/03/02 04:27:15;0.00;0.00;0.62;0.00;0.00;0.62;8.10;6.20;;;21.10;19.70;;;;;;2261317;61;20914;-67
2022/03/02 04:30:01;0.00;0.00;0.62;0.00;0.00;0.62;6.50;5.73;;;21.10;19.70;;;;;;2261433;61;20589;-68
2022/03/02 04:32:47;0.00;0.00;0.62;0.00;0.00;0.62;7.27;6.63;;;21.10;19.70;;;;;;2261461;61;20452;-67
2022/03/02 04:35:33;0.00;0.00;0.62;0.00;0.00;0.62;7.13;6.40;;;21.10;19.80;;;;;;2260496;61;20366;-67
2022/03/02 04:38:17;0.00;0.00;0.62;0.00;0.00;0.62;7.43;6.73;;;21.10;19.70;;;;;;2261689;61;20354;-65
2022/03/02 04:41:03;0.00;0.00;0.62;0.00;0.00;0.62;6.97;6.27;;;21.00;19.60;;;;;;2261630;61;20362;-65
2022/03/02 04:43:47;0.00;0.00;0.62;0.00;0.00;0.62;7.13;6.43;;;21.00;19.70;;;;;;2261328;61;20376;-65
2022/03/02 04:46:32;0.00;0.00;0.62;0.00;0.00;0.62;6.93;6.23;;;21.00;19.70;;;;;;2262317;61;20358;-68
2022/03/02 04:49:19;0.00;0.00;0.62;0.00;0.00;0.62;7.87;6.30;;;21.00;19.70;;;;;;2262023;61;20726;-66
2022/03/02 04:52:05;0.00;0.00;0.62;0.00;0.00;0.62;8.03;7.07;;;21.00;19.70;;;;;;2261439;61;20590;-67
2022/03/02 04:55:09;0.00;0.00;0.62;0.00;0.00;0.62;9.23;7.57;;;21.00;19.70;;;;;;2262192;61;20361;-68
2022/03/02 04:57:56;0.00;0.00;0.62;0.00;0.00;0.62;8.00;6.90;;;21.00;19.70;;;;;;2261450;61;20381;-66
2022/03/02 05:00:41;0.00;0.00;0.62;0.00;0.00;0.62;7.73;7.03;;;20.90;19.60;;;;;;2261834;61;20401;-63
2022/03/02 05:03:25;0.00;0.00;0.62;0.00;0.00;0.62;8.10;6.70;;;20.90;19.70;;;;;;2261824;61;20377;-68
2022/03/02 05:06:11;0.00;0.00;0.62;0.00;0.00;0.62;7.27;6.57;;;20.90;19.70;;;;;;2261302;61;20358;-67
2022/03/02 05:08:56;0.00;0.00;0.62;0.00;0.00;0.62;8.03;7.23;;;20.90;19.80;;;;;;2261769;61;20741;-66
2022/03/02 05:11:40;0.00;0.00;0.62;0.00;0.00;0.62;6.83;6.13;;;20.90;19.70;;;;;;2261074;61;20612;-68
2022/03/02 05:14:25;0.00;0.00;0.62;0.00;0.00;0.62;7.47;6.77;;;20.90;19.70;;;;;;2261309;61;20764;-62
2022/03/02 05:17:09;0.00;0.00;0.62;0.00;0.00;0.62;6.80;5.77;;;20.90;19.60;;;;;;2261213;61;20389;-62
2022/03/02 05:19:54;0.00;0.00;0.62;0.00;0.00;0.62;7.60;6.53;;;20.80;19.60;;;;;;2260884;61;20408;-64
2022/03/02 05:22:40;0.00;0.00;0.62;0.00;0.00;0.62;8.40;6.47;;;20.80;19.60;;;;;;2261107;61;20420;-66
2022/03/02 05:25:25;0.00;0.00;0.62;0.00;0.00;0.62;8.17;7.00;;;20.80;19.60;;;;;;2261227;61;20386;-65
2022/03/02 05:28:10;0.00;0.00;0.62;0.00;0.00;0.62;8.60;6.53;;;20.80;19.60;;;;;;2260556;61;20408;-69
2022/03/02 05:30:54;0.00;0.00;0.62;0.00;0.00;0.62;7.03;6.33;;;20.80;19.70;;;;;;2261302;61;20357;-62
2022/03/02 05:33:44;0.00;0.00;0.62;0.00;0.00;0.62;7.70;6.50;;;20.80;19.70;;;;;;2260604;61;20579;-64
2022/03/02 05:36:28;0.00;0.00;0.62;0.00;0.00;0.62;7.13;6.33;;;20.80;19.70;;;;;;2259631;61;20429;-65
2022/03/02 05:39:15;0.00;0.00;0.62;0.00;0.00;0.62;8.27;6.63;;;20.80;19.80;;;;;;2265701;61;20369;-65
2022/03/02 05:41:59;0.00;0.00;0.62;0.00;0.00;0.62;7.37;6.67;;;20.80;19.70;;;;;;2261228;61;20378;-66
2022/03/02 05:44:47;0.00;0.00;0.62;0.00;0.00;0.62;8.70;7.27;;;20.70;19.60;;;;;;2261925;61;20408;-65
2022/03/02 05:47:31;0.00;0.00;0.62;0.00;0.00;0.62;7.37;6.63;;;20.70;19.60;;;;;;2262303;61;20404;-64
2022/03/02 05:50:16;0.00;0.00;0.62;0.00;0.00;0.62;7.80;7.00;;;20.70;19.60;;;;;;2261137;61;20366;-65
2022/03/02 05:53:01;0.00;0.00;0.62;0.00;0.00;0.62;7.90;6.30;;;20.70;19.50;;;;;;2261739;61;20377;-66
2022/03/02 05:55:46;0.00;0.00;0.62;0.00;0.00;0.62;6.83;6.13;;;20.70;19.50;;;;;;2261729;61;20362;-64
2022/03/02 05:58:31;0.00;0.00;0.62;0.00;0.00;0.62;7.03;6.23;;;20.70;19.40;;;;;;2261435;61;20409;-64
2022/03/02 06:01:15;0.00;0.00;0.62;0.00;0.00;0.62;7.20;6.50;;;20.70;19.40;;;;;;2262208;61;20810;-65
2022/03/02 06:04:01;0.00;0.00;0.62;0.00;0.00;0.62;7.50;6.80;;;20.70;19.40;;;;;;2261258;61;20385;-68
2022/03/02 06:06:46;0.00;0.00;0.62;0.00;0.00;0.62;7.10;6.10;;;20.60;19.40;;;;;;2261639;61;20354;-67
2022/03/02 06:09:31;0.00;0.00;0.62;0.00;0.00;0.62;8.47;6.17;;;20.70;19.50;;;;;;2262231;61;20576;-66
2022/03/02 06:12:18;0.00;0.00;0.62;0.00;0.00;0.62;7.60;6.20;;;20.70;19.60;;;;;;2261220;61;20417;-67
2022/03/02 06:15:05;0.00;0.00;0.62;0.00;0.00;0.62;6.40;5.53;;;20.60;19.60;;;;;;2262001;61;20424;-65
2022/03/02 06:17:50;0.00;0.00;0.62;0.00;0.00;0.62;7.30;5.10;;;20.70;19.80;;;;;;2261569;61;20444;-68
2022/03/02 06:20:36;0.00;0.00;0.62;0.00;0.00;0.62;6.10;5.43;;;20.60;19.70;;;;;;2261468;61;20361;-66
2022/03/02 06:23:21;0.00;0.00;0.62;0.00;0.00;0.62;4.93;4.43;;;20.60;19.70;;;;;;2262149;61;20401;-64
2022/03/02 06:26:07;0.00;0.00;0.62;0.00;0.00;0.62;5.80;5.20;;;20.60;19.80;;;;;;2261457;61;20370;-66
2022/03/02 06:28:54;0.00;0.00;0.62;0.00;0.00;0.62;5.13;4.53;;;20.60;19.80;;;;;;2261698;61;20381;-66
2022/03/02 06:31:39;0.00;0.00;0.62;0.00;0.00;0.62;5.50;5.00;;;20.60;19.80;;;;;;2261780;61;20397;-68
2022/03/02 06:34:23;0.00;0.00;0.62;0.00;0.00;0.62;6.07;4.80;;;20.60;19.80;;;;;;2261431;61;20405;-67
2022/03/02 06:37:08;0.00;0.00;0.62;0.00;0.00;0.62;5.40;4.70;;;20.60;19.90;;;;;;2262044;61;20405;-67
2022/03/02 06:39:52;0.00;0.00;0.62;0.00;0.00;0.62;4.97;4.50;;;20.60;19.90;;;;;;2261795;61;20779;-68
2022/03/02 06:42:53;0.00;0.00;0.62;0.00;0.00;0.62;5.10;4.53;;;20.60;19.90;;;;;;2261190;61;20386;-67
2022/03/02 06:45:54;0.00;0.00;0.62;0.00;0.00;0.62;4.73;4.20;;;20.60;20.00;;;;;;2262110;61;20353;-66
2022/03/02 06:48:48;0.00;0.00;0.62;0.00;0.00;0.62;5.10;4.60;;;20.60;20.00;;;;;;2261457;61;20370;-65
2022/03/02 06:51:38;0.00;0.00;0.62;0.00;0.00;0.62;4.00;3.70;;;20.60;20.00;;;;;;2261562;61;20381;-65
2022/03/02 06:54:27;0.00;0.00;0.62;0.00;0.00;0.62;4.30;3.90;;;20.60;20.00;;;;;;2262086;61;20394;-65
2022/03/02 06:57:15;0.00;0.00;0.62;0.00;0.00;0.62;4.43;4.00;;;20.60;20.10;;;;;;2261227;61;20394;-67
2022/03/02 07:00:06;0.00;0.00;0.62;0.00;0.00;0.62;4.87;4.07;;;20.60;20.10;;;;;;2262068;61;20358;-65
2022/03/02 07:03:02;0.00;0.00;0.62;0.00;0.00;0.62;4.30;3.90;;;20.60;20.10;;;;;;2261452;61;20382;-65
2022/03/02 07:05:51;0.00;0.00;0.62;0.00;0.00;0.62;3.80;3.13;;;20.60;20.10;;;;;;2261743;61;20361;-67
2022/03/02 07:08:36;0.00;0.00;0.62;0.00;0.00;0.62;4.40;4.00;;;20.60;20.20;;;;;;2262027;61;20427;-67
2022/03/02 07:11:22;0.00;0.00;0.62;0.00;0.00;0.62;3.73;3.33;;;20.60;20.20;;;;;;2260922;61;20354;-67
2022/03/02 07:14:08;0.00;0.00;0.62;0.00;0.00;0.62;3.97;3.57;;;20.60;20.20;;;;;;2261965;61;20588;-66
2022/03/02 07:16:55;0.00;0.00;0.62;0.00;0.00;0.62;4.03;3.63;;;20.60;20.20;;;;;;2261543;61;20390;-65
2022/03/02 07:19:41;0.00;0.00;0.62;0.00;0.00;0.62;4.40;3.30;;;20.70;20.30;;;;;;2261200;61;20366;-66
2022/03/02 07:22:32;0.00;0.00;0.62;0.00;0.00;0.62;4.67;3.60;;;20.70;20.30;;;;;;2261893;61;20502;-67
2022/03/02 07:25:21;0.00;0.00;0.62;0.00;0.00;0.62;3.87;3.47;;;20.70;20.30;;;;;;2261164;61;20737;-66
2022/03/02 07:28:09;0.00;0.00;0.62;0.00;0.00;0.62;4.23;3.80;;;20.70;20.30;;;;;;2261447;61;20393;-65
2022/03/02 07:30:57;0.00;0.00;0.62;0.00;0.00;0.62;3.30;3.00;;;20.70;20.30;;;;;;2261463;61;20420;-66
2022/03/02 07:33:42;0.00;0.00;0.62;0.00;0.00;0.62;4.07;3.67;;;20.70;20.30;;;;;;2260983;61;20358;-66
2022/03/02 07:36:31;0.00;0.00;0.62;0.00;0.00;0.62;4.10;3.60;;;20.70;20.30;;;;;;2261822;61;20413;-67
2022/03/02 07:39:15;0.00;0.00;0.62;0.00;0.00;0.62;3.70;3.13;;;20.70;20.40;;;;;;2261315;61;20580;-67
2022/03/02 07:42:01;0.00;0.00;0.62;0.00;0.00;0.62;3.67;3.37;;;20.70;20.30;;;;;;2261029;61;20420;-65
2022/03/02 07:44:46;0.00;0.00;0.62;0.00;0.00;0.62;3.50;3.10;;;20.80;20.40;;;;;;2261893;61;20419;-65
2022/03/02 07:47:32;0.00;0.00;0.62;0.00;0.00;0.62;3.90;3.33;;;20.80;20.40;;;;;;2261085;61;20457;-67
2022/03/02 07:50:17;0.00;0.00;0.62;0.00;0.00;0.62;4.50;2.80;;;20.80;20.40;;;;;;2261614;61;20686;-67
2022/03/02 07:53:03;0.00;0.00;0.62;0.00;0.00;0.62;3.43;3.10;;;20.80;20.50;;;;;;2261602;61;20757;-65
2022/03/02 07:55:51;0.00;0.00;0.62;0.00;0.00;0.62;3.73;3.10;;;20.80;20.40;;;;;;2261314;61;20361;-64
2022/03/02 07:58:41;0.00;0.00;0.62;0.00;0.00;0.62;3.40;2.70;;;20.80;20.40;;;;;;2262319;61;20450;-65
2022/03/02 08:01:26;0.00;0.00;0.62;0.00;0.00;0.62;3.47;3.00;;;20.80;20.50;;;;;;2261452;61;20426;-66
2022/03/02 08:04:11;0.00;0.00;0.62;0.00;0.00;0.62;3.37;3.00;;;20.80;20.40;;;;;;2261381;61;20366;-67
2022/03/02 08:06:56;0.00;0.00;0.62;0.00;0.00;0.62;3.63;3.10;;;20.80;20.50;;;;;;2262102;61;20349;-66
2022/03/02 08:09:42;0.00;0.00;0.62;0.00;0.00;0.62;3.53;3.07;;;20.90;20.50;;;;;;2260962;61;20739;-65
2022/03/02 08:12:27;0.00;0.00;0.62;0.00;0.00;0.62;2.60;2.27;;;20.90;20.50;;;;;;2261255;61;20381;-66
2022/03/02 08:15:12;0.00;0.00;0.62;0.00;0.00;0.62;3.77;2.67;;;20.90;20.50;;;;;;2261719;61;20470;-67
2022/03/02 08:17:56;0.00;0.00;0.62;0.00;0.00;0.62;3.07;2.40;;;20.90;20.50;;;;;;2260902;61;20426;-67
2022/03/02 08:20:48;0.00;0.00;0.62;0.00;0.00;0.62;3.83;2.90;;;20.90;20.50;;;;;;2261832;61;20366;-65
2022/03/02 08:23:37;0.00;0.00;0.62;0.00;0.00;0.62;4.13;3.03;;;20.90;20.60;;;;;;2261405;61;20373;-65
2022/03/02 08:26:25;0.00;0.00;0.62;0.00;0.00;0.62;2.50;2.17;;;20.90;20.50;;;;;;2261153;61;20362;-65
2022/03/02 08:29:11;0.00;0.00;0.62;0.00;0.00;0.62;2.90;2.30;;;20.90;20.50;;;;;;2261730;61;20582;-67
2022/03/02 08:32:00;0.00;0.00;0.62;0.00;0.00;0.62;4.00;3.20;;;21.00;20.60;;;;;;2260660;61;20378;-64
2022/03/02 08:34:48;0.00;0.00;0.62;0.00;0.00;0.62;3.40;2.60;;;21.00;21.20;;;;;;2261375;61;20358;-65
2022/03/02 08:37:34;0.00;0.00;0.62;0.00;0.00;0.62;3.20;2.70;;;21.00;20.70;;;;;;2261648;61;20381;-67
2022/03/02 08:40:18;0.00;0.00;0.62;0.00;0.00;0.62;2.57;2.20;;;21.00;20.70;;;;;;2260385;61;20397;-66
2022/03/02 08:43:05;0.00;0.00;0.62;0.00;0.00;0.62;3.07;2.63;;;21.00;20.70;;;;;;2261467;61;20385;-66
2022/03/02 08:45:51;0.00;0.00;0.62;0.00;0.00;0.62;2.87;2.57;;;21.00;20.70;;;;;;2261221;61;20884;-66
2022/03/02 08:48:36;0.00;0.00;0.62;0.00;0.00;0.62;2.57;2.30;;;21.00;20.70;;;;;;2261269;61;20358;-67
2022/03/02 08:51:22;0.00;0.00;0.62;0.00;0.00;0.62;2.33;2.13;;;21.00;20.70;;;;;;2261432;61;20405;-67
2022/03/02 08:54:12;0.00;0.00;0.62;0.00;0.00;0.62;2.17;1.97;;;21.10;20.80;;;;;;2260855;61;20434;-67
2022/03/02 08:56:57;0.00;0.00;0.62;0.00;0.00;0.62;3.20;2.67;;;21.10;20.80;;;;;;2260893;61;20404;-66
2022/03/02 08:59:44;0.00;0.00;0.62;0.00;0.00;0.62;3.67;2.53;;;21.10;20.70;;;;;;2261533;61;20405;-68
2022/03/02 09:02:30;0.00;0.00;0.62;0.00;0.00;0.62;2.80;2.47;;;21.10;20.80;;;;;;2260808;61;20382;-67
2022/03/02 09:05:15;0.00;0.00;0.62;0.00;0.00;0.62;3.17;2.23;;;21.10;20.70;;;;;;2261675;61;20385;-67
2022/03/02 09:07:59;0.00;0.00;0.62;0.00;0.00;0.62;3.00;2.70;;;21.10;20.70;;;;;;2261729;61;20702;-65
2022/03/02 09:10:44;0.00;0.00;0.62;0.00;0.00;0.62;2.23;1.87;;;21.20;20.80;;;;;;2261815;61;20377;-67
2022/03/02 09:13:29;0.00;0.00;0.62;0.00;0.00;0.62;2.57;2.17;;;21.20;20.80;;;;;;2262206;61;20381;-68
2022/03/02 09:16:15;0.00;0.00;0.62;0.00;0.00;0.62;3.60;2.50;;;21.20;20.80;;;;;;2261443;61;20665;-67
2022/03/02 09:19:00;0.00;0.00;0.62;0.00;0.00;0.62;2.83;2.30;;;21.20;20.80;;;;;;2261920;61;20370;-66
2022/03/02 09:21:45;0.00;0.00;0.62;0.00;0.00;0.62;2.27;2.07;;;21.20;20.90;;;;;;2262090;61;20393;-65
2022/03/02 09:24:32;0.00;0.00;0.62;0.00;0.00;0.62;2.20;1.90;;;21.20;20.90;;;;;;2261653;61;20356;-66
2022/03/02 09:27:18;0.00;0.00;0.62;0.00;0.00;0.62;2.60;2.17;;;21.20;20.90;;;;;;2262266;61;20357;-66
2022/03/02 09:30:07;0.00;0.00;0.62;0.00;0.00;0.62;2.53;2.03;;;21.20;20.90;;;;;;2262188;61;20764;-66
2022/03/02 09:32:54;0.00;0.00;0.62;0.00;0.00;0.62;3.20;2.57;;;21.30;21.00;;;;;;2261460;61;20545;-67
2022/03/02 09:35:40;0.00;0.00;0.62;0.00;0.00;0.62;2.33;1.97;;;21.30;21.00;;;;;;2262259;61;20353;-68
2022/03/02 09:38:26;0.00;0.00;0.62;0.00;0.00;0.62;2.63;1.87;;;21.30;21.00;;;;;;2261485;61;20489;-64
2022/03/02 09:41:23;0.00;0.00;0.62;0.00;0.00;0.62;3.10;2.77;;;21.30;21.00;;;;;;2261711;61;20426;-66
2022/03/02 09:44:13;0.00;0.00;0.62;0.00;0.00;0.62;2.23;1.63;;;21.40;21.10;;;;;;2262346;61;20377;-64
2022/03/02 09:47:00;0.00;0.00;0.62;0.00;0.00;0.62;3.23;2.40;;;21.40;21.10;;;;;;2261228;61;20346;-67
2022/03/02 09:49:51;0.00;0.00;0.62;0.00;0.00;0.62;2.43;2.10;;;21.40;21.00;;;;;;2262210;61;20752;-67
2022/03/02 09:52:38;0.00;0.00;0.62;0.00;0.00;0.62;2.73;2.00;;;21.40;21.00;;;;;;2261600;61;20373;-67
2022/03/02 09:55:24;0.00;0.00;0.62;0.00;0.00;0.62;3.40;2.10;;;21.40;21.00;;;;;;2261550;61;20382;-68
2022/03/02 09:58:14;0.00;0.00;0.62;0.00;0.00;0.62;3.20;2.30;;;21.50;21.10;;;;;;2262200;61;20636;-66
2022/03/02 10:00:59;0.00;0.00;0.62;0.00;0.00;0.62;2.50;2.10;;;21.50;21.10;;;;;;2261243;61;20385;-67
2022/03/02 10:03:47;0.00;0.00;0.62;0.00;0.00;0.62;2.43;2.20;;;21.50;21.10;;;;;;2261508;61;20349;-68
2022/03/02 10:06:41;0.00;0.00;0.62;0.00;0.00;0.62;2.70;2.40;;;21.50;21.10;;;;;;2262249;61;20393;-66
2022/03/02 10:09:29;0.00;0.00;0.62;0.00;0.00;0.62;2.40;2.07;;;21.50;21.10;;;;;;2261100;61;20457;-67
2022/03/02 10:12:15;0.00;0.00;0.62;0.00;0.00;0.62;2.80;2.00;;;21.60;21.20;;;;;;2261714;61;20382;-66
2022/03/02 10:15:01;0.00;0.00;0.62;0.00;0.00;0.62;2.73;2.13;;;21.60;21.20;;;;;;2261665;61;20420;-66
2022/03/02 10:17:48;0.00;0.00;0.62;0.00;0.00;0.62;3.57;2.60;;;21.60;21.20;;;;;;2261518;61;20617;-67
2022/03/02 10:20:36;0.00;0.00;0.62;0.00;0.00;0.62;2.40;2.17;;;21.60;21.20;;;;;;2262155;61;20401;-64
2022/03/02 10:23:40;0.00;0.00;0.62;0.00;0.00;0.62;2.87;2.30;;;21.60;21.20;;;;;;2261308;61;20382;-66
2022/03/02 10:26:27;0.00;0.00;0.62;0.00;0.00;0.62;2.90;2.20;;;21.70;21.30;;;;;;2262254;61;20412;-66
2022/03/02 10:29:22;0.00;0.00;0.62;0.00;0.00;0.62;2.17;1.93;;;21.70;21.30;;;;;;2262019;61;20412;-63
2022/03/02 10:32:11;0.00;0.00;0.62;0.00;0.00;0.62;2.97;2.60;;;21.70;21.30;;;;;;2261257;61;20451;-65
2022/03/02 10:35:04;0.00;0.00;0.62;0.00;0.00;0.62;2.13;1.80;;;21.70;21.30;;;;;;2262176;61;20730;-66
2022/03/02 10:37:58;0.00;0.00;0.62;0.00;0.00;0.62;2.93;2.00;;;21.80;21.40;;;;;;2261152;61;20432;-64
2022/03/02 10:40:46;0.00;0.00;0.62;0.00;0.00;0.62;2.87;2.27;;;21.80;21.40;;;;;;2261858;61;20877;-66
2022/03/02 10:43:41;0.00;0.00;0.62;0.00;0.00;0.62;2.37;1.83;;;21.80;21.40;;;;;;2262029;61;20401;-67
2022/03/02 10:46:27;0.00;0.00;0.62;0.00;0.00;0.62;2.50;2.13;;;21.90;21.50;;;;;;2261185;61;20451;-67
2022/03/02 10:49:18;0.00;0.00;0.62;0.00;0.00;0.62;1.90;1.67;;;21.90;21.50;;;;;;2262179;61;20353;-64
2022/03/02 10:52:04;0.00;0.00;0.62;0.00;0.00;0.62;2.30;1.97;;;21.90;21.50;;;;;;2261318;61;20425;-67
2022/03/02 10:54:53;0.00;0.00;0.62;0.00;0.00;0.62;2.10;1.73;;;22.00;21.50;;;;;;2261694;61;20392;-66
2022/03/02 10:57:39;0.00;0.00;0.62;0.00;0.00;0.62;1.80;1.50;;;22.00;21.50;;;;;;2261976;61;20409;-67